sensor_id;sensor_type;location;lat;lon;timestamp;pressure;altitude;pressure_sealevel;temperature;humidity
32761;BME280;19126;47.472;7.850;2023-03-13T00:01:27;96351.59;;;2.98;28.36
32761;BME280;19126;47.472;7.850;2023-03-13T00:04:00;96350.91;;;2.96;28.51
32761;BME280;19126;47.472;7.850;2023-03-13T00:06:31;96349.44;;;3.03;28.15
32761;BME280;19126;47.472;7.850;2023-03-13T00:09:02;96339.31;;;3.00;27.19
32761;BME280;19126;47.472;7.850;2023-03-13T00:11:34;96341.78;;;3.12;25.99
32761;BME280;19126;47.472;7.850;2023-03-13T00:14:04;96344.22;;;3.13;26.20
32761;BME280;19126;47.472;7.850;2023-03-13T00:16:37;96346.28;;;3.19;25.77
32761;BME280;19126;47.472;7.850;2023-03-13T00:19:08;96338.50;;;3.19;25.67
32761;BME280;19126;47.472;7.850;2023-03-13T00:21:40;96347.41;;;3.27;24.51
32761;BME280;19126;47.472;7.850;2023-03-13T00:24:10;96339.06;;;3.23;24.52
32761;BME280;19126;47.472;7.850;2023-03-13T00:26:39;96340.44;;;3.27;24.89
32761;BME280;19126;47.472;7.850;2023-03-13T00:29:08;96334.16;;;3.30;24.19
32761;BME280;19126;47.472;7.850;2023-03-13T00:31:38;96336.75;;;3.30;23.39
32761;BME280;19126;47.472;7.850;2023-03-13T00:34:05;96346.19;;;3.41;23.98
32761;BME280;19126;47.472;7.850;2023-03-13T00:36:33;96339.63;;;3.36;23.08
32761;BME280;19126;47.472;7.850;2023-03-13T00:39:05;96334.97;;;3.40;23.00
32761;BME280;19126;47.472;7.850;2023-03-13T00:41:36;96321.31;;;3.38;22.60
32761;BME280;19126;47.472;7.850;2023-03-13T00:44:08;96329.38;;;3.45;21.92
32761;BME280;19126;47.472;7.850;2023-03-13T00:46:37;96320.88;;;3.52;22.60
32761;BME280;19126;47.472;7.850;2023-03-13T00:49:05;96324.16;;;3.55;22.09
32761;BME280;19126;47.472;7.850;2023-03-13T00:51:35;96315.97;;;3.59;21.97
32761;BME280;19126;47.472;7.850;2023-03-13T00:54:02;96315.69;;;3.52;21.36
32761;BME280;19126;47.472;7.850;2023-03-13T00:56:29;96314.06;;;3.61;22.28
32761;BME280;19126;47.472;7.850;2023-03-13T00:58:58;96309.81;;;3.60;22.17
32761;BME280;19126;47.472;7.850;2023-03-13T01:01:30;96317.06;;;3.66;21.38
32761;BME280;19126;47.472;7.850;2023-03-13T01:03:59;96313.34;;;3.69;21.25
32761;BME280;19126;47.472;7.850;2023-03-13T01:06:29;96309.69;;;3.72;21.13
32761;BME280;19126;47.472;7.850;2023-03-13T01:09:05;96309.25;;;3.76;20.04
32761;BME280;19126;47.472;7.850;2023-03-13T01:11:37;96308.44;;;3.76;20.49
32761;BME280;19126;47.472;7.850;2023-03-13T01:14:07;96314.72;;;3.83;19.76
32761;BME280;19126;47.472;7.850;2023-03-13T01:16:37;96302.81;;;3.80;20.53
32761;BME280;19126;47.472;7.850;2023-03-13T01:19:06;96293.66;;;3.76;20.01
32761;BME280;19126;47.472;7.850;2023-03-13T01:21:35;96292.69;;;3.77;20.46
32761;BME280;19126;47.472;7.850;2023-03-13T01:24:07;96293.78;;;3.85;20.61
32761;BME280;19126;47.472;7.850;2023-03-13T01:26:35;96282.97;;;3.79;20.21
32761;BME280;19126;47.472;7.850;2023-03-13T01:29:02;96268.63;;;3.85;19.33
32761;BME280;19126;47.472;7.850;2023-03-13T01:31:30;96275.59;;;3.85;20.02
32761;BME280;19126;47.472;7.850;2023-03-13T01:34:04;96270.22;;;3.96;19.22
32761;BME280;19126;47.472;7.850;2023-03-13T01:36:34;96264.78;;;3.99;19.63
32761;BME280;19126;47.472;7.850;2023-03-13T01:39:02;96260.94;;;4.03;19.19
32761;BME280;19126;47.472;7.850;2023-03-13T01:41:35;96259.28;;;4.02;19.82
32761;BME280;19126;47.472;7.850;2023-03-13T01:44:12;96245.06;;;3.96;19.67
32761;BME280;19126;47.472;7.850;2023-03-13T01:46:46;96259.00;;;4.05;19.12
32761;BME280;19126;47.472;7.850;2023-03-13T01:49:19;96253.66;;;4.07;18.64
32761;BME280;19126;47.472;7.850;2023-03-13T01:51:51;96249.69;;;4.13;18.79
32761;BME280;19126;47.472;7.850;2023-03-13T01:54:24;96246.78;;;4.16;18.35
32761;BME280;19126;47.472;7.850;2023-03-13T01:56:55;96245.84;;;4.17;19.14
32761;BME280;19126;47.472;7.850;2023-03-13T01:59:36;96242.13;;;4.19;18.62
32761;BME280;19126;47.472;7.850;2023-03-13T02:02:11;96246.75;;;4.25;18.25
32761;BME280;19126;47.472;7.850;2023-03-13T02:04:52;96232.09;;;4.24;18.60
32761;BME280;19126;47.472;7.850;2023-03-13T02:07:28;96244.69;;;4.29;17.97
32761;BME280;19126;47.472;7.850;2023-03-13T02:10:03;96239.63;;;4.28;18.13
32761;BME280;19126;47.472;7.850;2023-03-13T02:12:34;96243.44;;;4.33;18.37
32761;BME280;19126;47.472;7.850;2023-03-13T02:15:04;96249.69;;;4.40;18.74
32761;BME280;19126;47.472;7.850;2023-03-13T02:17:33;96232.59;;;4.38;18.47
32761;BME280;19126;47.472;7.850;2023-03-13T02:20:09;96235.44;;;4.45;17.97
32761;BME280;19126;47.472;7.850;2023-03-13T02:22:42;96222.94;;;4.48;17.86
32761;BME280;19126;47.472;7.850;2023-03-13T02:25:14;96206.28;;;4.41;18.10
32761;BME280;19126;47.472;7.850;2023-03-13T02:27:48;96214.47;;;4.46;18.55
32761;BME280;19126;47.472;7.850;2023-03-13T02:30:19;96221.97;;;4.49;18.02
32761;BME280;19126;47.472;7.850;2023-03-13T02:32:49;96208.09;;;4.59;18.11
32761;BME280;19126;47.472;7.850;2023-03-13T02:35:28;96197.97;;;4.55;17.99
32761;BME280;19126;47.472;7.850;2023-03-13T02:38:00;96188.41;;;4.56;17.95
32761;BME280;19126;47.472;7.850;2023-03-13T02:40:31;96179.47;;;4.59;18.53
32761;BME280;19126;47.472;7.850;2023-03-13T02:43:04;96188.72;;;4.71;17.92
32761;BME280;19126;47.472;7.850;2023-03-13T02:45:34;96179.13;;;4.72;18.40
32761;BME280;19126;47.472;7.850;2023-03-13T02:48:02;96173.84;;;4.63;18.18
32761;BME280;19126;47.472;7.850;2023-03-13T02:50:32;96175.03;;;4.69;18.34
32761;BME280;19126;47.472;7.850;2023-03-13T02:53:01;96176.38;;;4.73;18.48
32761;BME280;19126;47.472;7.850;2023-03-13T02:55:36;96164.19;;;4.74;18.88
32761;BME280;19126;47.472;7.850;2023-03-13T02:58:11;96163.06;;;4.76;19.04
32761;BME280;19126;47.472;7.850;2023-03-13T03:00:40;96165.53;;;4.78;18.31
32761;BME280;19126;47.472;7.850;2023-03-13T03:03:11;96160.47;;;4.76;18.79
32761;BME280;19126;47.472;7.850;2023-03-13T03:05:43;96143.66;;;4.71;18.63
32761;BME280;19126;47.472;7.850;2023-03-13T03:08:11;96151.56;;;4.79;18.76
32761;BME280;19126;47.472;7.850;2023-03-13T03:10:38;96167.06;;;4.89;18.90
32761;BME280;19126;47.472;7.850;2023-03-13T03:13:05;96160.91;;;4.90;19.04
32761;BME280;19126;47.472;7.850;2023-03-13T03:15:36;96162.22;;;4.94;18.94
32761;BME280;19126;47.472;7.850;2023-03-13T03:18:09;96173.25;;;5.06;18.79
32761;BME280;19126;47.472;7.850;2023-03-13T03:20:39;96170.16;;;5.10;18.80
32761;BME280;19126;47.472;7.850;2023-03-13T03:23:06;96157.69;;;5.14;18.94
32761;BME280;19126;47.472;7.850;2023-03-13T03:25:34;96166.28;;;5.14;18.75
32761;BME280;19126;47.472;7.850;2023-03-13T03:28:01;96169.63;;;5.25;18.57
32761;BME280;19126;47.472;7.850;2023-03-13T03:30:28;96167.50;;;5.20;19.24
32761;BME280;19126;47.472;7.850;2023-03-13T03:32:56;96181.09;;;5.32;18.93
32761;BME280;19126;47.472;7.850;2023-03-13T03:35:24;96172.63;;;5.30;19.38
32761;BME280;19126;47.472;7.850;2023-03-13T03:37:56;96161.69;;;5.26;19.74
32761;BME280;19126;47.472;7.850;2023-03-13T03:40:31;96168.34;;;5.29;20.07
32761;BME280;19126;47.472;7.850;2023-03-13T03:42:58;96161.50;;;5.28;19.94
32761;BME280;19126;47.472;7.850;2023-03-13T03:45:28;96162.03;;;5.32;20.47
32761;BME280;19126;47.472;7.850;2023-03-13T03:47:58;96165.16;;;5.35;20.45
32761;BME280;19126;47.472;7.850;2023-03-13T03:50:26;96172.81;;;5.37;20.54
32761;BME280;19126;47.472;7.850;2023-03-13T03:52:53;96170.50;;;5.34;20.99
32761;BME280;19126;47.472;7.850;2023-03-13T03:55:20;96175.59;;;5.35;21.41
32761;BME280;19126;47.472;7.850;2023-03-13T03:57:47;96165.00;;;5.37;21.18
32761;BME280;19126;47.472;7.850;2023-03-13T04:00:15;96162.56;;;5.35;21.29
32761;BME280;19126;47.472;7.850;2023-03-13T04:02:48;96150.13;;;5.29;21.75
32761;BME280;19126;47.472;7.850;2023-03-13T04:05:16;96166.50;;;5.39;21.73
32761;BME280;19126;47.472;7.850;2023-03-13T04:07:44;96165.53;;;5.40;21.78
32761;BME280;19126;47.472;7.850;2023-03-13T04:10:11;96165.53;;;5.40;21.36
32761;BME280;19126;47.472;7.850;2023-03-13T04:12:45;96166.19;;;5.42;21.53
32761;BME280;19126;47.472;7.850;2023-03-13T04:15:13;96161.28;;;5.39;21.23
32761;BME280;19126;47.472;7.850;2023-03-13T04:17:43;96163.59;;;5.42;20.91
32761;BME280;19126;47.472;7.850;2023-03-13T04:20:13;96160.16;;;5.42;21.11
32761;BME280;19126;47.472;7.850;2023-03-13T04:22:45;96142.84;;;5.33;20.99
32761;BME280;19126;47.472;7.850;2023-03-13T04:25:21;96155.47;;;5.46;21.23
32761;BME280;19126;47.472;7.850;2023-03-13T04:27:49;96145.84;;;5.46;21.36
32761;BME280;19126;47.472;7.850;2023-03-13T04:30:16;96151.41;;;5.51;21.23
32761;BME280;19126;47.472;7.850;2023-03-13T04:32:43;96152.75;;;5.55;21.18
32761;BME280;19126;47.472;7.850;2023-03-13T04:35:15;96145.75;;;5.56;20.87
32761;BME280;19126;47.472;7.850;2023-03-13T04:37:50;96136.31;;;5.55;21.47
32761;BME280;19126;47.472;7.850;2023-03-13T04:40:20;96133.69;;;5.55;22.05
32761;BME280;19126;47.472;7.850;2023-03-13T04:42:47;96130.63;;;5.60;21.80
32761;BME280;19126;47.472;7.850;2023-03-13T04:45:14;96122.81;;;5.60;21.62
32761;BME280;19126;47.472;7.850;2023-03-13T04:47:41;96135.72;;;5.69;21.48
32761;BME280;19126;47.472;7.850;2023-03-13T04:50:21;96132.16;;;5.70;21.96
32761;BME280;19126;47.472;7.850;2023-03-13T04:52:49;96131.00;;;5.73;22.21
32761;BME280;19126;47.472;7.850;2023-03-13T04:55:16;96119.56;;;5.66;22.95
32761;BME280;19126;47.472;7.850;2023-03-13T04:57:47;96137.06;;;5.74;22.95
32761;BME280;19126;47.472;7.850;2023-03-13T05:00:14;96134.28;;;5.75;22.94
32761;BME280;19126;47.472;7.850;2023-03-13T05:02:59;96128.09;;;5.76;23.45
32761;BME280;19126;47.472;7.850;2023-03-13T05:05:27;96137.41;;;5.79;23.55
32761;BME280;19126;47.472;7.850;2023-03-13T05:07:56;96128.09;;;5.76;23.66
32761;BME280;19126;47.472;7.850;2023-03-13T05:10:26;96137.09;;;5.82;23.15
32761;BME280;19126;47.472;7.850;2023-03-13T05:12:53;96128.44;;;5.81;23.48
32761;BME280;19126;47.472;7.850;2023-03-13T05:15:26;96126.66;;;5.82;23.71
32761;BME280;19126;47.472;7.850;2023-03-13T05:18:02;96130.91;;;5.83;24.10
32761;BME280;19126;47.472;7.850;2023-03-13T05:20:29;96132.69;;;5.82;24.45
32761;BME280;19126;47.472;7.850;2023-03-13T05:22:58;96123.44;;;5.88;23.76
32761;BME280;19126;47.472;7.850;2023-03-13T05:25:25;96127.81;;;5.87;23.65
32761;BME280;19126;47.472;7.850;2023-03-13T05:27:55;96117.69;;;5.84;23.47
32761;BME280;19126;47.472;7.850;2023-03-13T05:30:23;96123.25;;;5.90;23.24
32761;BME280;19126;47.472;7.850;2023-03-13T05:32:50;96119.00;;;5.89;23.83
32761;BME280;19126;47.472;7.850;2023-03-13T05:35:17;96125.56;;;5.93;23.85
32761;BME280;19126;47.472;7.850;2023-03-13T05:37:44;96127.34;;;5.92;23.33
32761;BME280;19126;47.472;7.850;2023-03-13T05:40:13;96111.84;;;5.91;23.76
32761;BME280;19126;47.472;7.850;2023-03-13T05:42:41;96123.66;;;6.03;23.35
32761;BME280;19126;47.472;7.850;2023-03-13T05:45:12;96115.38;;;6.08;23.74
32761;BME280;19126;47.472;7.850;2023-03-13T05:47:39;96119.31;;;6.12;23.69
32761;BME280;19126;47.472;7.850;2023-03-13T05:50:14;96105.13;;;6.14;23.93
32761;BME280;19126;47.472;7.850;2023-03-13T05:52:42;96108.38;;;6.16;24.65
32761;BME280;19126;47.472;7.850;2023-03-13T05:55:10;96106.44;;;6.19;24.88
32761;BME280;19126;47.472;7.850;2023-03-13T05:57:44;96104.78;;;6.18;25.56
32761;BME280;19126;47.472;7.850;2023-03-13T06:00:16;96107.91;;;6.21;25.26
32761;BME280;19126;47.472;7.850;2023-03-13T06:02:46;96112.16;;;6.22;25.77
32761;BME280;19126;47.472;7.850;2023-03-13T06:05:30;96112.81;;;6.24;25.08
32761;BME280;19126;47.472;7.850;2023-03-13T06:07:59;96117.72;;;6.27;25.60
32761;BME280;19126;47.472;7.850;2023-03-13T06:10:28;96117.72;;;6.27;25.95
32761;BME280;19126;47.472;7.850;2023-03-13T06:12:58;96119.34;;;6.28;26.44
32761;BME280;19126;47.472;7.850;2023-03-13T06:15:42;96100.91;;;6.22;26.56
32761;BME280;19126;47.472;7.850;2023-03-13T06:18:10;96106.13;;;6.30;26.76
32761;BME280;19126;47.472;7.850;2023-03-13T06:20:37;96107.63;;;6.33;26.37
32761;BME280;19126;47.472;7.850;2023-03-13T06:23:09;96108.09;;;6.36;26.76
32761;BME280;19126;47.472;7.850;2023-03-13T06:25:41;96097.66;;;6.36;26.21
32761;BME280;19126;47.472;7.850;2023-03-13T06:28:19;96105.03;;;6.41;27.00
32761;BME280;19126;47.472;7.850;2023-03-13T06:30:48;96112.88;;;6.49;26.92
32761;BME280;19126;47.472;7.850;2023-03-13T06:33:18;96100.47;;;6.51;26.70
32761;BME280;19126;47.472;7.850;2023-03-13T06:35:49;96087.75;;;6.56;27.24
32761;BME280;19126;47.472;7.850;2023-03-13T06:38:16;96082.53;;;6.65;27.95
32761;BME280;19126;47.472;7.850;2023-03-13T06:40:49;96075.88;;;6.70;28.45
32761;BME280;19126;47.472;7.850;2023-03-13T06:43:24;96079.28;;;6.79;29.50
32761;BME280;19126;47.472;7.850;2023-03-13T06:45:55;96081.06;;;6.87;31.12
32761;BME280;19126;47.472;7.850;2023-03-13T06:48:25;96079.44;;;6.94;32.79
32761;BME280;19126;47.472;7.850;2023-03-13T06:51:08;96087.25;;;7.11;34.59
32761;BME280;19126;47.472;7.850;2023-03-13T06:53:47;96083.97;;;7.25;36.33
32761;BME280;19126;47.472;7.850;2023-03-13T06:56:18;96089.94;;;7.51;36.54
32761;BME280;19126;47.472;7.850;2023-03-13T06:58:48;96075.50;;;7.63;37.92
32761;BME280;19126;47.472;7.850;2023-03-13T07:01:16;96074.50;;;7.72;41.63
32761;BME280;19126;47.472;7.850;2023-03-13T07:03:51;96077.25;;;7.79;44.78
32761;BME280;19126;47.472;7.850;2023-03-13T07:06:22;96086.69;;;7.88;47.78
32761;BME280;19126;47.472;7.850;2023-03-13T07:08:51;96082.56;;;7.94;48.41
32761;BME280;19126;47.472;7.850;2023-03-13T07:11:35;96071.75;;;8.05;49.72
32761;BME280;19126;47.472;7.850;2023-03-13T07:14:30;96066.19;;;8.09;50.16
32761;BME280;19126;47.472;7.850;2023-03-13T07:17:33;96077.69;;;8.23;53.97
32761;BME280;19126;47.472;7.850;2023-03-13T07:20:12;96098.38;;;8.41;61.14
32761;BME280;19126;47.472;7.850;2023-03-13T07:22:50;96100.28;;;8.47;67.39
32761;BME280;19126;47.472;7.850;2023-03-13T07:25:35;96083.44;;;8.49;74.22
32761;BME280;19126;47.472;7.850;2023-03-13T07:28:05;96078.22;;;8.41;79.00
32761;BME280;19126;47.472;7.850;2023-03-13T07:30:49;96075.91;;;8.46;85.04
32761;BME280;19126;47.472;7.850;2023-03-13T07:33:18;96088.91;;;8.63;88.56
32761;BME280;19126;47.472;7.850;2023-03-13T07:35:58;96083.44;;;8.73;91.65
32761;BME280;19126;47.472;7.850;2023-03-13T07:38:29;96075.47;;;8.89;94.87
32761;BME280;19126;47.472;7.850;2023-03-13T07:40:59;96080.84;;;9.11;97.21
32761;BME280;19126;47.472;7.850;2023-03-13T07:43:28;96071.28;;;9.48;95.32
32761;BME280;19126;47.472;7.850;2023-03-13T07:46:02;96075.41;;;9.88;96.17
32761;BME280;19126;47.472;7.850;2023-03-13T07:48:35;96080.94;;;10.30;95.94
32761;BME280;19126;47.472;7.850;2023-03-13T07:51:10;96083.06;;;10.56;100.00
32761;BME280;19126;47.472;7.850;2023-03-13T07:53:38;96079.44;;;10.79;100.00
32761;BME280;19126;47.472;7.850;2023-03-13T07:56:22;96080.84;;;11.03;100.00
32761;BME280;19126;47.472;7.850;2023-03-13T07:58:50;96076.53;;;11.24;100.00
32761;BME280;19126;47.472;7.850;2023-03-13T08:01:21;96079.56;;;11.49;100.00
32761;BME280;19126;47.472;7.850;2023-03-13T08:03:49;96082.91;;;11.71;100.00
32761;BME280;19126;47.472;7.850;2023-03-13T08:06:28;96075.38;;;11.68;100.00
32761;BME280;19126;47.472;7.850;2023-03-13T08:09:06;96068.34;;;11.76;100.00
32761;BME280;19126;47.472;7.850;2023-03-13T08:11:37;96064.16;;;11.88;100.00
32761;BME280;19126;47.472;7.850;2023-03-13T08:14:08;96055.19;;;11.76;100.00
32761;BME280;19126;47.472;7.850;2023-03-13T08:16:36;96060.09;;;11.85;100.00
32761;BME280;19126;47.472;7.850;2023-03-13T08:19:10;96059.44;;;11.77;100.00
32761;BME280;19126;47.472;7.850;2023-03-13T08:21:37;96055.41;;;11.81;98.97
32761;BME280;19126;47.472;7.850;2023-03-13T08:24:08;96054.34;;;12.10;100.00
32761;BME280;19126;47.472;7.850;2023-03-13T08:26:44;96044.09;;;12.36;100.00
32761;BME280;19126;47.472;7.850;2023-03-13T08:29:16;96033.78;;;12.61;100.00
32761;BME280;19126;47.472;7.850;2023-03-13T08:31:47;96042.09;;;13.12;100.00
32761;BME280;19126;47.472;7.850;2023-03-13T08:34:17;96047.97;;;13.54;100.00
32761;BME280;19126;47.472;7.850;2023-03-13T08:36:47;96043.44;;;13.68;95.50
32761;BME280;19126;47.472;7.850;2023-03-13T08:39:18;96028.31;;;13.96;95.51
32761;BME280;19126;47.472;7.850;2023-03-13T08:41:47;96028.63;;;14.13;92.09
32761;BME280;19126;47.472;7.850;2023-03-13T08:44:18;96012.34;;;14.16;92.40
32761;BME280;19126;47.472;7.850;2023-03-13T08:46:47;96014.13;;;14.29;90.61
32761;BME280;19126;47.472;7.850;2023-03-13T08:49:19;96014.03;;;14.42;90.91
32761;BME280;19126;47.472;7.850;2023-03-13T08:51:48;96019.25;;;14.49;89.16
32761;BME280;19126;47.472;7.850;2023-03-13T08:54:17;96012.31;;;14.55;88.78
32761;BME280;19126;47.472;7.850;2023-03-13T08:56:46;95999.63;;;14.70;87.16
32761;BME280;19126;47.472;7.850;2023-03-13T08:59:15;95992.34;;;14.91;84.71
32761;BME280;19126;47.472;7.850;2023-03-13T09:01:42;95999.56;;;15.02;80.66
32761;BME280;19126;47.472;7.850;2023-03-13T09:04:13;96008.50;;;15.27;82.43
32761;BME280;19126;47.472;7.850;2023-03-13T09:06:40;95989.53;;;15.30;81.07
32761;BME280;19126;47.472;7.850;2023-03-13T09:09:16;95990.34;;;15.49;80.99
32761;BME280;19126;47.472;7.850;2023-03-13T09:11:46;95983.06;;;15.63;80.04
32761;BME280;19126;47.472;7.850;2023-03-13T09:14:17;95982.91;;;15.76;83.06
32761;BME280;19126;47.472;7.850;2023-03-13T09:16:44;95981.88;;;15.59;79.42
32761;BME280;19126;47.472;7.850;2023-03-13T09:19:22;95977.78;;;15.44;79.02
32761;BME280;19126;47.472;7.850;2023-03-13T09:21:52;95977.34;;;15.47;81.67
32761;BME280;19126;47.472;7.850;2023-03-13T09:24:19;95968.03;;;15.94;83.75
32761;BME280;19126;47.472;7.850;2023-03-13T09:26:46;95955.53;;;15.82;79.61
32761;BME280;19126;47.472;7.850;2023-03-13T09:29:16;95941.91;;;16.40;79.96
32761;BME280;19126;47.472;7.850;2023-03-13T09:31:46;95937.22;;;16.66;75.60
32761;BME280;19126;47.472;7.850;2023-03-13T09:34:16;95934.44;;;16.73;75.07
32761;BME280;19126;47.472;7.850;2023-03-13T09:36:51;95927.16;;;16.80;75.48
32761;BME280;19126;47.472;7.850;2023-03-13T09:39:22;95913.22;;;16.73;75.97
32761;BME280;19126;47.472;7.850;2023-03-13T09:41:56;95912.19;;;16.97;73.32
32761;BME280;19126;47.472;7.850;2023-03-13T09:44:28;95913.59;;;17.00;69.66
32761;BME280;19126;47.472;7.850;2023-03-13T09:47:00;95915.88;;;17.08;69.81
32761;BME280;19126;47.472;7.850;2023-03-13T09:49:33;95919.91;;;17.23;69.60
32761;BME280;19126;47.472;7.850;2023-03-13T09:52:18;95909.28;;;17.35;68.00
32761;BME280;19126;47.472;7.850;2023-03-13T09:54:55;95905.47;;;17.31;70.40
32761;BME280;19126;47.472;7.850;2023-03-13T09:57:27;95896.69;;;17.30;72.04
32761;BME280;19126;47.472;7.850;2023-03-13T10:00:06;95883.19;;;17.32;71.54
32761;BME280;19126;47.472;7.850;2023-03-13T10:02:37;95871.56;;;17.79;73.17
32761;BME280;19126;47.472;7.850;2023-03-13T10:05:11;95863.75;;;18.18;72.33
32761;BME280;19126;47.472;7.850;2023-03-13T10:07:41;95853.56;;;18.66;72.70
32761;BME280;19126;47.472;7.850;2023-03-13T10:10:16;95853.59;;;19.28;74.61
32761;BME280;19126;47.472;7.850;2023-03-13T10:12:46;95846.41;;;19.28;65.27
32761;BME280;19126;47.472;7.850;2023-03-13T10:15:33;95851.75;;;19.83;69.28
32761;BME280;19126;47.472;7.850;2023-03-13T10:18:12;95845.31;;;19.79;62.91
32761;BME280;19126;47.472;7.850;2023-03-13T10:20:50;95838.28;;;19.68;62.29
32761;BME280;19126;47.472;7.850;2023-03-13T10:23:34;95843.25;;;19.86;66.08
32761;BME280;19126;47.472;7.850;2023-03-13T10:26:19;95835.25;;;19.86;64.95
32761;BME280;19126;47.472;7.850;2023-03-13T10:28:49;95830.69;;;19.82;62.27
32761;BME280;19126;47.472;7.850;2023-03-13T10:31:20;95816.78;;;20.02;65.35
32761;BME280;19126;47.472;7.850;2023-03-13T10:33:52;95807.69;;;19.98;61.83
32761;BME280;19126;47.472;7.850;2023-03-13T10:36:20;95813.03;;;20.41;63.21
32761;BME280;19126;47.472;7.850;2023-03-13T10:38:52;95806.31;;;20.28;60.40
32761;BME280;19126;47.472;7.850;2023-03-13T10:41:28;95795.53;;;20.60;61.45
32761;BME280;19126;47.472;7.850;2023-03-13T10:43:59;95804.84;;;21.06;61.80
32761;BME280;19126;47.472;7.850;2023-03-13T10:46:28;95788.41;;;21.30;61.50
32761;BME280;19126;47.472;7.850;2023-03-13T10:49:00;95775.66;;;21.68;59.63
32761;BME280;19126;47.472;7.850;2023-03-13T10:51:34;95782.34;;;21.81;56.71
32761;BME280;19126;47.472;7.850;2023-03-13T10:54:23;95756.91;;;21.58;54.71
32761;BME280;19126;47.472;7.850;2023-03-13T10:56:51;95763.56;;;21.45;54.22
32761;BME280;19126;47.472;7.850;2023-03-13T10:59:25;95753.06;;;21.07;55.16
32761;BME280;19126;47.472;7.850;2023-03-13T11:02:19;95744.00;;;20.44;57.24
32761;BME280;19126;47.472;7.850;2023-03-13T11:04:59;95743.50;;;20.53;55.39
32761;BME280;19126;47.472;7.850;2023-03-13T11:07:31;95731.78;;;20.59;53.30
32761;BME280;19126;47.472;7.850;2023-03-13T11:10:13;95732.16;;;20.83;55.21
32761;BME280;19126;47.472;7.850;2023-03-13T11:12:51;95721.41;;;20.73;54.71
32761;BME280;19126;47.472;7.850;2023-03-13T11:15:23;95717.28;;;21.08;54.49
32761;BME280;19126;47.472;7.850;2023-03-13T11:17:54;95707.41;;;21.14;55.66
32761;BME280;19126;47.472;7.850;2023-03-13T11:20:28;95711.41;;;21.06;52.02
32761;BME280;19126;47.472;7.850;2023-03-13T11:23:10;95695.78;;;20.72;53.74
32761;BME280;19126;47.472;7.850;2023-03-13T11:25:47;95697.25;;;20.95;53.27
32761;BME280;19126;47.472;7.850;2023-03-13T11:28:41;95690.34;;;21.41;53.80
32761;BME280;19126;47.472;7.850;2023-03-13T11:31:17;95689.81;;;21.44;51.77
32761;BME280;19126;47.472;7.850;2023-03-13T11:33:57;95674.84;;;21.58;51.64
32761;BME280;19126;47.472;7.850;2023-03-13T11:36:31;95667.09;;;21.98;52.63
32761;BME280;19126;47.472;7.850;2023-03-13T11:39:06;95672.03;;;22.41;52.28
32761;BME280;19126;47.472;7.850;2023-03-13T11:41:52;95663.25;;;22.30;49.75
32761;BME280;19126;47.472;7.850;2023-03-13T11:44:34;95657.88;;;22.40;47.72
32761;BME280;19126;47.472;7.850;2023-03-13T11:50:14;95649.19;;;22.75;48.76
32761;BME280;19126;47.472;7.850;2023-03-13T11:52:59;95636.03;;;22.83;47.41
32761;BME280;19126;47.472;7.850;2023-03-13T11:55:45;95630.16;;;22.81;46.59
32761;BME280;19126;47.472;7.850;2023-03-13T11:58:37;95634.50;;;22.67;46.36
32761;BME280;19126;47.472;7.850;2023-03-13T12:01:13;95618.38;;;22.77;46.64
32761;BME280;19126;47.472;7.850;2023-03-13T12:03:50;95608.94;;;22.85;46.88
32761;BME280;19126;47.472;7.850;2023-03-13T12:06:24;95618.78;;;23.00;46.62
32761;BME280;19126;47.472;7.850;2023-03-13T12:08:54;95608.53;;;22.67;45.97
32761;BME280;19126;47.472;7.850;2023-03-13T12:11:26;95591.84;;;22.81;46.88
32761;BME280;19126;47.472;7.850;2023-03-13T12:13:58;95591.00;;;22.91;47.07
32761;BME280;19126;47.472;7.850;2023-03-13T12:16:35;95583.19;;;22.94;46.24
32761;BME280;19126;47.472;7.850;2023-03-13T12:19:10;95573.28;;;22.55;46.61
32761;BME280;19126;47.472;7.850;2023-03-13T12:21:41;95569.81;;;22.49;46.40
32761;BME280;19126;47.472;7.850;2023-03-13T12:24:11;95564.16;;;22.56;46.97
32761;BME280;19126;47.472;7.850;2023-03-13T12:26:44;95563.69;;;22.38;45.80
32761;BME280;19126;47.472;7.850;2023-03-13T12:29:15;95549.63;;;22.17;46.32
32761;BME280;19126;47.472;7.850;2023-03-13T12:31:47;95539.81;;;22.02;47.31
32761;BME280;19126;47.472;7.850;2023-03-13T12:34:21;95540.50;;;22.18;47.26
32761;BME280;19126;47.472;7.850;2023-03-13T12:36:53;95528.88;;;21.93;47.93
32761;BME280;19126;47.472;7.850;2023-03-13T12:39:28;95520.28;;;21.96;48.46
32761;BME280;19126;47.472;7.850;2023-03-13T12:42:16;95516.31;;;21.89;47.51
32761;BME280;19126;47.472;7.850;2023-03-13T12:44:55;95504.28;;;21.91;48.39
32761;BME280;19126;47.472;7.850;2023-03-13T12:47:28;95497.13;;;21.81;47.32
32761;BME280;19126;47.472;7.850;2023-03-13T12:50:23;95481.06;;;21.81;47.52
32761;BME280;19126;47.472;7.850;2023-03-13T12:53:20;95496.34;;;21.65;47.60
32761;BME280;19126;47.472;7.850;2023-03-13T12:58:48;95474.13;;;21.80;48.92
32761;BME280;19126;47.472;7.850;2023-03-13T13:01:27;95472.47;;;21.95;47.49
32761;BME280;19126;47.472;7.850;2023-03-13T13:03:57;95441.94;;;22.01;47.98
32761;BME280;19126;47.472;7.850;2023-03-13T13:09:15;95444.00;;;22.15;47.61
32761;BME280;19126;47.472;7.850;2023-03-13T13:11:49;95431.41;;;22.15;47.54
32761;BME280;19126;47.472;7.850;2023-03-13T13:18:09;95449.53;;;21.78;47.01
32761;BME280;19126;47.472;7.850;2023-03-13T13:20:46;95416.47;;;21.59;47.13
32761;BME280;19126;47.472;7.850;2023-03-13T13:26:44;95412.47;;;21.56;48.16
32761;BME280;19126;47.472;7.850;2023-03-13T13:30:03;95390.38;;;21.35;47.18
32761;BME280;19126;47.472;7.850;2023-03-13T13:32:46;95392.50;;;21.43;46.83
32761;BME280;19126;47.472;7.850;2023-03-13T13:36:13;95393.28;;;21.44;46.96
32761;BME280;19126;47.472;7.850;2023-03-13T13:38:50;95388.78;;;21.34;46.22
32761;BME280;19126;47.472;7.850;2023-03-13T13:41:35;95386.31;;;21.48;46.80
32761;BME280;19126;47.472;7.850;2023-03-13T13:44:27;95363.91;;;21.38;46.25
32761;BME280;19126;47.472;7.850;2023-03-13T13:47:29;95388.53;;;21.25;45.97
32761;BME280;19126;47.472;7.850;2023-03-13T13:56:58;95364.69;;;21.44;46.41
32761;BME280;19126;47.472;7.850;2023-03-13T14:03:30;95349.84;;;21.22;44.86